createdAt,value
2018-07-26T04:10:18.416Z,75.06
2018-07-26T04:10:43.904Z,74.68
2018-07-26T04:11:09.392Z,75.06
2018-07-26T04:11:34.863Z,74.87
2018-07-26T04:12:00.371Z,75.16
2018-07-26T04:12:25.892Z,74.96
2018-07-26T04:12:51.371Z,74.96
2018-07-26T04:13:16.869Z,75.26
2018-07-26T04:13:42.544Z,74.87
2018-07-26T04:14:08.061Z,74.87
2018-07-26T04:14:33.507Z,74.87
2018-07-26T04:14:59.001Z,74.68
2018-07-26T04:15:24.482Z,74.68
2018-07-26T04:15:49.981Z,75.16
2018-07-26T04:16:15.446Z,75.06
2018-07-26T04:16:40.951Z,75.16
2018-07-26T04:17:06.448Z,75.16
2018-07-26T04:17:31.946Z,74.87
2018-07-26T04:17:57.443Z,74.77
2018-07-26T04:18:22.916Z,75.26
2018-07-26T04:18:48.424Z,75.16
2018-07-26T04:19:13.915Z,75.06
2018-07-26T04:19:39.419Z,74.87
2018-07-26T04:20:04.981Z,75.16
2018-07-26T04:20:30.368Z,75.26
2018-07-26T04:20:55.857Z,74.96
2018-07-26T04:21:21.356Z,74.77
2018-07-26T04:21:46.874Z,74.68
2018-07-26T04:22:12.390Z,74.96
2018-07-26T04:22:37.824Z,74.96
2018-07-26T04:23:03.294Z,75.06
2018-07-26T04:23:28.842Z,75.26
2018-07-26T04:23:54.306Z,75.16
2018-07-26T04:24:19.781Z,75.16
2018-07-26T04:24:45.263Z,74.87
2018-07-26T04:25:10.815Z,75.16
2018-07-26T04:25:36.251Z,74.77
2018-07-26T04:26:01.848Z,75.16
2018-07-26T04:26:27.326Z,75.26
2018-07-26T04:26:52.831Z,75.35
2018-07-26T04:27:18.311Z,74.96
2018-07-26T04:27:43.939Z,75.26
2018-07-26T04:28:09.325Z,75.54
2018-07-26T04:28:34.913Z,75.26
2018-07-26T04:29:00.313Z,75.26
2018-07-26T04:29:25.769Z,75.26
2018-07-26T04:29:51.282Z,75.06
2018-07-26T04:30:16.861Z,75.16
2018-07-26T04:30:42.283Z,75.06
2018-07-26T04:31:07.795Z,74.96
2018-07-26T04:31:33.250Z,75.16
2018-07-26T04:31:58.706Z,75.26
2018-07-26T04:32:24.168Z,75.16
2018-07-26T04:32:49.739Z,75.06
2018-07-26T04:33:15.116Z,74.87
2018-07-26T04:33:40.654Z,75.06
2018-07-26T04:34:06.164Z,74.87
2018-07-26T04:34:31.612Z,74.96
2018-07-26T04:34:57.127Z,74.87
2018-07-26T04:35:22.572Z,74.96
2018-07-26T04:35:48.048Z,74.87
2018-07-26T04:36:13.507Z,75.16
2018-07-26T04:36:39.049Z,74.96
2018-07-26T04:37:04.554Z,74.87
2018-07-26T04:37:30.044Z,75.06
2018-07-26T04:37:55.475Z,74.9
2018-07-26T04:38:20.981Z,74.87
2018-07-26T04:38:46.417Z,75.16
2018-07-26T04:39:11.912Z,75
2018-07-26T04:39:37.450Z,74.9
2018-07-26T04:40:02.968Z,74.9
2018-07-26T04:40:28.448Z,74.71
2018-07-26T04:40:53.940Z,74.9
2018-07-26T04:41:19.420Z,75
2018-07-26T04:41:44.925Z,74.42
2018-07-26T04:42:10.409Z,74.81
2018-07-26T04:42:35.945Z,74.13
2018-07-26T04:43:01.489Z,74.04
2018-07-26T04:43:26.969Z,74.32
2018-07-26T04:43:52.465Z,74.62
2018-07-26T04:44:17.945Z,74.32
2018-07-26T04:44:43.484Z,74.32
2018-07-26T04:45:09.002Z,74.04
2018-07-26T04:45:34.524Z,74.04
2018-07-26T04:46:00.042Z,73.88
2018-07-26T04:46:25.442Z,74.17
2018-07-26T04:46:50.976Z,73.59
2018-07-26T04:47:16.541Z,73.78
2018-07-26T04:47:42.073Z,73.49
2018-07-26T04:48:07.603Z,73.49
2018-07-26T04:48:33.046Z,73.78
2018-07-26T04:48:58.493Z,73.39
2018-07-26T04:49:24.060Z,73.1
2018-07-26T04:49:49.630Z,73.1
2018-07-26T04:50:15.177Z,73.14
2018-07-26T04:50:40.840Z,73.3
2018-07-26T04:51:06.389Z,73.14
2018-07-26T04:51:31.870Z,72.85
2018-07-26T04:51:57.276Z,72.95
2018-07-26T04:52:22.932Z,72.95
2018-07-26T04:52:48.766Z,72.46
2018-07-26T04:53:14.287Z,72.66
2018-07-26T04:53:39.754Z,72.46
2018-07-26T04:54:05.223Z,72.08
2018-07-26T04:54:30.805Z,72.08
2018-07-26T04:54:56.183Z,71.69
2018-07-26T04:55:21.704Z,72.08
2018-07-26T04:55:47.198Z,72.08
2018-07-26T04:56:12.695Z,71.92
2018-07-26T04:56:38.172Z,71.72
2018-07-26T04:57:03.678Z,71.72
2018-07-26T04:57:29.185Z,71.82
2018-07-26T04:57:54.738Z,71.62
2018-07-26T04:58:20.225Z,71.62
2018-07-26T04:58:45.691Z,71.24
2018-07-26T04:59:11.231Z,71.44
2018-07-26T04:59:36.722Z,71.04
2018-07-26T05:00:02.232Z,71.44
2018-07-26T05:00:27.708Z,70.95
2018-07-26T05:00:53.203Z,70.86
2018-07-26T05:01:18.691Z,70.86
2018-07-26T05:01:44.193Z,71.14
2018-07-26T05:02:09.714Z,71.24
2018-07-26T05:03:23.866Z,70.66
2018-07-26T05:03:49.361Z,70.95
2018-07-26T05:04:14.862Z,71.34
2018-07-26T05:04:40.317Z,71.14
2018-07-26T05:05:06.012Z,71.14
2018-07-26T05:05:31.471Z,71.44
2018-07-26T05:05:56.989Z,71.04
2018-07-26T05:06:22.453Z,71.44
2018-07-26T05:06:47.957Z,71.53
2018-07-26T05:07:13.384Z,71.04
2018-07-26T05:07:38.896Z,71.72
2018-07-26T05:08:05.161Z,71.69
2018-07-26T05:08:30.602Z,72.08
2018-07-26T05:08:56.054Z,71.88
2018-07-26T05:09:21.773Z,71.78
2018-07-26T05:09:47.321Z,71.98
2018-07-26T05:10:12.879Z,71.88
2018-07-26T05:10:39.219Z,71.78
2018-07-26T05:11:04.687Z,72.46
2018-07-26T05:11:30.272Z,72.56
2018-07-26T05:11:55.838Z,72.56
2018-07-26T05:12:59.427Z,72.36
2018-07-26T05:13:24.981Z,72.27
2018-07-26T05:13:50.446Z,72.36
2018-07-26T05:14:16.045Z,72.56
2018-07-26T05:15:29.817Z,72.85
2018-07-26T05:15:55.383Z,72.85
2018-07-26T05:16:20.898Z,72.56
2018-07-26T05:16:46.402Z,72.46
2018-07-26T05:17:11.884Z,72.75
2018-07-26T05:17:37.383Z,72.27
2018-07-26T05:18:02.889Z,72.56
2018-07-26T05:18:28.418Z,72.66
2018-07-26T05:18:53.887Z,72.95
2018-07-26T05:19:19.354Z,72.75
2018-07-26T05:19:45.162Z,72.85
2018-07-26T05:20:10.384Z,72.95
2018-07-26T05:20:35.985Z,72.95
2018-07-26T05:21:29.593Z,72.85
2018-07-26T05:21:55.057Z,72.75
2018-07-26T05:22:20.587Z,72.75
2018-07-26T05:22:46.095Z,72.95
2018-07-26T05:23:11.561Z,72.85
2018-07-26T05:23:37.156Z,72.56
2018-07-26T05:24:02.645Z,72.85
2018-07-26T05:24:28.155Z,72.95
2018-07-26T05:24:53.658Z,72.75
2018-07-26T05:25:19.166Z,73.33
2018-07-26T05:25:44.664Z,72.56
2018-07-26T05:26:10.213Z,72.95
2018-07-26T05:26:35.690Z,72.75
2018-07-26T05:27:01.176Z,72.75
2018-07-26T05:27:26.735Z,72.75
2018-07-26T05:28:25.265Z,72.75
2018-07-26T05:28:50.833Z,72.85
2018-07-26T05:29:16.307Z,72.85
2018-07-26T05:29:41.786Z,72.75
2018-07-26T05:30:07.247Z,73.08
2018-07-26T05:30:32.768Z,72.95
2018-07-26T05:30:58.254Z,72.66
2018-07-26T05:31:23.874Z,72.75
2018-07-26T05:31:49.388Z,72.56
2018-07-26T05:32:14.894Z,72.98
2018-07-26T05:32:40.460Z,72.6
2018-07-26T05:33:05.912Z,72.69
2018-07-26T05:33:31.467Z,72.85
2018-07-26T05:33:56.973Z,72.79
2018-07-26T05:34:22.492Z,72.79
2018-07-26T05:34:47.988Z,72.98
2018-07-26T05:35:13.487Z,72.89
2018-07-26T05:35:38.968Z,72.98
2018-07-26T05:36:04.477Z,72.5
2018-07-26T05:36:29.998Z,72.3
2018-07-26T05:37:28.578Z,72.4
2018-07-26T05:37:54.085Z,72.5
2018-07-26T05:38:19.502Z,72.69
2018-07-26T05:38:44.999Z,72.3
2018-07-26T05:39:48.623Z,72.69
2018-07-26T05:40:14.127Z,72.4
2018-07-26T05:40:39.614Z,71.92
2018-07-26T05:41:05.121Z,72.5
2018-07-26T05:41:30.600Z,72.3
2018-07-26T05:41:56.123Z,72.3
2018-07-26T05:42:21.631Z,72.21
2018-07-26T05:42:47.256Z,71.92
2018-07-26T05:43:12.701Z,72.02
2018-07-26T05:43:38.196Z,71.92
2018-07-26T05:44:03.666Z,72.3
2018-07-26T05:44:29.167Z,72.3
2018-07-26T05:44:54.672Z,72.4
2018-07-26T05:45:20.179Z,72.4
2018-07-26T05:45:45.676Z,72.5
2018-07-26T05:46:11.141Z,72.4
2018-07-26T05:46:36.667Z,72.6
2018-07-26T05:47:45.733Z,72.69
2018-07-26T05:48:11.217Z,72.3
2018-07-26T05:48:36.689Z,72.3
2018-07-26T05:49:02.192Z,72.69
2018-07-26T05:49:27.706Z,72.4
2018-07-26T05:49:53.231Z,72.4
2018-07-26T05:50:18.769Z,72.5
2018-07-26T05:50:44.252Z,72.21
2018-07-26T05:51:09.768Z,72.69
2018-07-26T05:51:35.235Z,72.3
2018-07-26T05:52:00.775Z,72.6
2018-07-26T05:52:26.301Z,72.89
2018-07-26T05:52:51.835Z,72.5
2018-07-26T05:53:17.368Z,72.56
2018-07-26T05:53:42.823Z,72.89
2018-07-26T05:54:08.332Z,72.89
2018-07-26T05:54:33.936Z,73.27
2018-07-26T05:54:59.419Z,73.37
2018-07-26T05:55:24.892Z,73.08
2018-07-26T05:55:50.437Z,73.08
2018-07-26T05:56:16.049Z,74.11
2018-07-26T05:56:41.456Z,73.75
2018-07-26T05:57:06.997Z,73.66
2018-07-26T05:57:32.460Z,73.66
2018-07-26T05:57:57.951Z,73.43
2018-07-26T05:58:23.452Z,73.33
2018-07-26T05:58:48.938Z,73.57
2018-07-26T05:59:14.612Z,73.47
2018-07-26T06:00:08.088Z,73.57
2018-07-26T06:00:33.570Z,73.53
2018-07-26T06:00:59.242Z,73.75
2018-07-26T06:01:24.639Z,73.66
2018-07-26T06:01:50.157Z,73.57
2018-07-26T06:02:15.654Z,73.66
2018-07-26T06:02:41.148Z,73.57
2018-07-26T06:03:06.656Z,73.57
2018-07-26T06:03:32.140Z,73.47
2018-07-26T06:03:57.681Z,73.53
2018-07-26T06:04:23.212Z,73.75
2018-07-26T06:04:48.781Z,73.57
2018-07-26T06:05:14.293Z,73.57
2018-07-26T06:05:39.791Z,73.75
2018-07-26T06:06:05.297Z,73.75
2018-07-26T06:06:30.843Z,73.75
2018-07-26T06:06:56.376Z,73.75
2018-07-26T06:07:21.855Z,73.75
2018-07-26T06:07:47.370Z,73.57
2018-07-26T06:08:12.867Z,73.57
2018-07-26T06:08:38.367Z,73.66
2018-07-26T06:09:03.881Z,73.57
2018-07-26T06:09:29.404Z,73.66
2018-07-26T06:09:54.950Z,73.66
2018-07-26T06:10:20.350Z,73.47
2018-07-26T06:10:45.818Z,73.47
2018-07-26T06:11:11.349Z,73.57
2018-07-26T06:11:36.848Z,73.66
2018-07-26T06:12:02.338Z,73.47
2018-07-26T06:12:27.807Z,73.57
2018-07-26T06:12:53.356Z,73.75
2018-07-26T06:13:18.840Z,73.57
2018-07-26T06:13:44.347Z,73.75
2018-07-26T06:14:09.911Z,73.66
2018-07-26T06:14:35.414Z,73.75
2018-07-26T06:15:00.927Z,73.66
2018-07-26T06:15:26.442Z,73.75
2018-07-26T06:15:51.931Z,73.66
2018-07-26T06:16:17.436Z,73.57
2018-07-26T06:16:42.932Z,73.47
2018-07-26T06:17:08.563Z,73.47
2018-07-26T06:17:33.989Z,73.57
2018-07-26T06:17:59.492Z,73.47
2018-07-26T06:18:25.001Z,73.66
2018-07-26T06:18:50.477Z,73.57
2018-07-26T06:19:16.038Z,73.66
2018-07-26T06:19:41.491Z,73.57
2018-07-26T06:20:06.961Z,73.57
2018-07-26T06:20:32.468Z,73.57
2018-07-26T06:20:57.933Z,73.95
2018-07-26T06:21:23.445Z,73.75
2018-07-26T06:21:49.019Z,74.05
2018-07-26T06:22:14.533Z,74.24
2018-07-26T06:22:40.021Z,74.05
2018-07-26T06:23:05.560Z,73.95
2018-07-26T06:23:31.040Z,74.24
2018-07-26T06:23:56.550Z,74.24
2018-07-26T06:24:22.089Z,73.95
2018-07-26T06:24:47.606Z,74.28
2018-07-26T06:25:13.102Z,74.24
2018-07-26T06:25:38.787Z,74.28
2018-07-26T06:26:04.269Z,73.95
2018-07-26T06:26:29.782Z,74.18
2018-07-26T06:26:55.288Z,74.08
2018-07-26T06:27:20.779Z,74.18
2018-07-26T06:27:46.237Z,74.08
2018-07-26T06:28:11.772Z,74.08
2018-07-26T06:28:37.216Z,74.18
2018-07-26T06:29:02.746Z,74.28
2018-07-26T06:29:28.240Z,74.08
2018-07-26T06:29:53.731Z,74.08
2018-07-26T06:30:19.266Z,74.08
2018-07-26T06:30:44.775Z,73.6
2018-07-26T06:31:10.289Z,73.69
2018-07-26T06:31:35.753Z,73.79
2018-07-26T06:32:01.301Z,73.69
2018-07-26T06:32:26.787Z,73.69
2018-07-26T06:32:52.251Z,73.6
2018-07-26T06:33:17.829Z,73.79
2018-07-26T06:33:43.332Z,73.69
2018-07-26T06:34:08.800Z,73.79
2018-07-26T06:34:34.310Z,73.79
2018-07-26T06:34:59.864Z,73.69
2018-07-26T06:35:25.374Z,73.6
2018-07-26T06:35:50.882Z,73.79
2018-07-26T06:36:16.357Z,73.5
2018-07-26T06:36:41.904Z,73.6
2018-07-26T06:37:07.419Z,73.6
2018-07-26T06:37:32.981Z,73.79
2018-07-26T06:37:58.553Z,73.11
2018-07-26T06:38:24.081Z,73.21
2018-07-26T06:38:49.570Z,73.21
2018-07-26T06:39:15.106Z,73.41
2018-07-26T06:39:40.650Z,73.02
2018-07-26T06:40:06.163Z,73.31
2018-07-26T06:40:31.665Z,73.5
2018-07-26T06:40:57.324Z,72.83
2018-07-26T06:42:06.759Z,72.92
2018-07-26T06:42:32.669Z,72.92
2018-07-26T06:42:58.291Z,72.73
2018-07-26T06:43:24.160Z,72.83
2018-07-26T06:43:49.644Z,72.24
2018-07-26T06:44:15.172Z,72.92
2018-07-26T06:44:40.752Z,72.73
2018-07-26T06:45:06.507Z,72.63
2018-07-26T06:45:31.983Z,72.44
2018-07-26T06:45:57.680Z,72.53
2018-07-26T06:46:23.316Z,72.63
2018-07-26T06:46:48.876Z,72.44
2018-07-26T06:47:14.466Z,72.34
2018-07-26T06:47:39.973Z,72.34
2018-07-26T06:48:05.524Z,72.15
2018-07-26T06:48:31.062Z,72.24
2018-07-26T06:48:56.552Z,72.38
2018-07-26T06:49:22.048Z,72.47
2018-07-26T06:49:47.564Z,72.47
2018-07-26T06:50:13.251Z,72.77
2018-07-26T06:50:38.776Z,72.18
2018-07-26T06:51:04.336Z,72.28
2018-07-26T06:51:29.790Z,72.09
2018-07-26T06:51:55.307Z,71.89
2018-07-26T06:52:20.815Z,72.18
2018-07-26T06:52:46.374Z,71.99
2018-07-26T06:53:12.004Z,71.8
2018-07-26T06:53:37.949Z,71.8
2018-07-26T06:54:03.461Z,71.6
2018-07-26T06:54:28.977Z,71.99
2018-07-26T06:54:54.676Z,71.8
2018-07-26T06:55:20.107Z,71.22
2018-07-26T06:55:45.803Z,71.99
2018-07-26T06:56:11.362Z,72.09
2018-07-26T06:56:36.853Z,71.31
2018-07-26T06:57:02.399Z,71.22
2018-07-26T06:57:27.944Z,71.22
2018-07-26T06:57:53.551Z,71.22
2018-07-26T06:58:19.002Z,71.54
2018-07-26T06:58:44.491Z,71.15
2018-07-26T06:59:09.972Z,71.25
2018-07-26T06:59:35.516Z,71.34
2018-07-26T07:00:01.115Z,71.25
2018-07-26T07:00:26.603Z,71.54
2018-07-26T07:00:52.129Z,71.06
2018-07-26T07:01:17.580Z,71.15
2018-07-26T07:01:43.091Z,71.54
2018-07-26T07:02:08.648Z,71.06
2018-07-26T07:02:34.196Z,70.57
2018-07-26T07:02:59.701Z,70.76
2018-07-26T07:03:25.172Z,70.76
2018-07-26T07:03:50.697Z,71.25
2018-07-26T07:04:16.197Z,71.06
2018-07-26T07:04:41.669Z,71.06
2018-07-26T07:05:07.167Z,71.15
2018-07-26T07:05:32.706Z,71.06
2018-07-26T07:05:58.209Z,70.28
2018-07-26T07:06:23.918Z,69.7
2018-07-26T07:06:49.300Z,69.79
2018-07-26T07:07:14.854Z,69.99
2018-07-26T07:07:40.374Z,69.99
2018-07-26T07:08:05.899Z,69.89
2018-07-26T07:08:31.400Z,69.99
2018-07-26T07:08:56.927Z,70.09
2018-07-26T07:09:22.416Z,70.47
2018-07-26T07:09:47.881Z,70.18
2018-07-26T07:10:13.562Z,70.28
2018-07-26T07:10:38.860Z,70.12
2018-07-26T07:11:04.389Z,70.41
2018-07-26T07:11:29.874Z,70.31
2018-07-26T07:11:55.378Z,70.21
2018-07-26T07:12:20.884Z,70.61
2018-07-26T07:12:46.365Z,69.83
2018-07-26T07:13:11.939Z,70.21
2018-07-26T07:13:37.481Z,70.21
2018-07-26T07:14:02.975Z,70.12
2018-07-26T07:14:28.476Z,70.31
2018-07-26T07:14:54.062Z,70.03
2018-07-26T07:15:19.543Z,70.21
2018-07-26T07:15:45.051Z,69.73
2018-07-26T07:16:10.522Z,69.73
2018-07-26T07:16:36.001Z,69.64
2018-07-26T07:17:01.509Z,69.83
2018-07-26T07:17:26.986Z,70.03
2018-07-26T07:17:52.450Z,70.03
2018-07-26T07:18:17.919Z,70.03
2018-07-26T07:18:43.400Z,69.73
2018-07-26T07:19:08.906Z,69.64
2018-07-26T07:19:34.413Z,69.64
2018-07-26T07:19:59.874Z,69.38
2018-07-26T07:20:25.344Z,69.28
2018-07-26T07:20:50.854Z,70.15
2018-07-26T07:21:16.322Z,69.24
2018-07-26T07:21:41.822Z,69.54
2018-07-26T07:22:07.327Z,69.64
2018-07-26T07:22:32.798Z,69.48
2018-07-26T07:22:58.296Z,69.44
2018-07-26T07:23:23.793Z,69.44
2018-07-26T07:23:49.248Z,69.28
2018-07-26T07:24:14.769Z,69.54
2018-07-26T07:24:40.272Z,69.57
2018-07-26T07:25:05.740Z,69.76
2018-07-26T07:26:09.546Z,69.18
2018-07-26T07:26:34.947Z,68.99
2018-07-26T07:27:00.457Z,69.18
2018-07-26T07:27:25.972Z,69.57
2018-07-26T07:27:51.571Z,69.18
2018-07-26T07:28:16.991Z,69.18
2018-07-26T07:28:42.458Z,68.89
2018-07-26T07:29:07.987Z,68.83
2018-07-26T07:29:33.456Z,69.12
2018-07-26T07:29:58.963Z,68.93
2018-07-26T07:30:24.453Z,68.73
2018-07-26T07:30:49.984Z,68.12
2018-07-26T07:31:15.491Z,68.35
2018-07-26T07:31:41.171Z,68.25
2018-07-26T07:32:06.636Z,68.21
2018-07-26T07:33:15.353Z,69.09
2018-07-26T07:33:40.805Z,69.02
2018-07-26T07:34:06.648Z,68.79
2018-07-26T07:34:32.284Z,68.35
2018-07-26T07:34:57.677Z,68.44
2018-07-26T07:35:23.175Z,68.44
2018-07-26T07:35:48.692Z,68.15
2018-07-26T07:36:14.275Z,68.44
2018-07-26T07:36:39.833Z,68.25
2018-07-26T07:37:05.580Z,68.54
2018-07-26T07:37:31.087Z,67.66
2018-07-26T07:37:56.591Z,68.44
2018-07-26T07:38:22.096Z,68.05
2018-07-26T07:38:47.613Z,68.35
2018-07-26T07:39:13.105Z,67.89
2018-07-26T07:39:38.651Z,68.28
2018-07-26T07:40:04.154Z,68.38
2018-07-26T07:40:29.773Z,67.8
2018-07-26T07:40:55.323Z,68.12
2018-07-26T07:41:21.010Z,68.41
2018-07-26T07:41:46.508Z,67.54
2018-07-26T07:42:11.956Z,67.24
2018-07-26T07:42:37.570Z,67.24
2018-07-26T07:43:03.324Z,66.6
2018-07-26T07:43:28.750Z,66.4
2018-07-26T07:43:54.263Z,66.11
2018-07-26T07:44:19.739Z,65.92
2018-07-26T07:44:45.236Z,66.02
2018-07-26T07:45:10.672Z,66.05
2018-07-26T07:45:36.134Z,66.34
2018-07-26T07:46:01.646Z,65.17
2018-07-26T07:46:27.183Z,64.59
2018-07-26T07:46:52.667Z,64.39
2018-07-26T07:47:18.221Z,63.71
2018-07-26T07:47:43.664Z,63.94
2018-07-26T07:48:09.085Z,64.42
2018-07-26T07:48:34.630Z,64.52
2018-07-26T07:49:00.120Z,64.23
2018-07-26T07:49:25.681Z,63.94
2018-07-26T07:49:51.274Z,63.35
2018-07-26T07:50:16.773Z,63.35
2018-07-26T07:50:42.427Z,63.26
2018-07-26T07:51:07.942Z,63.48
2018-07-26T07:51:33.505Z,63.87
2018-07-26T07:51:59.272Z,63.39
2018-07-26T07:52:24.755Z,63.22
2018-07-26T07:52:50.515Z,63.39
2018-07-26T07:53:15.941Z,62.99
2018-07-26T07:53:41.469Z,62.41
2018-07-26T07:54:06.965Z,62.22
2018-07-26T07:54:32.469Z,62.35
2018-07-26T07:54:57.934Z,62.05
2018-07-26T07:55:23.433Z,62.15
2018-07-26T07:55:49.069Z,62.05
2018-07-26T07:56:14.540Z,62.15
2018-07-26T07:56:40.110Z,62.35
2018-07-26T07:57:05.590Z,62.15
2018-07-26T07:57:31.114Z,61.76
2018-07-26T07:57:56.638Z,61.99
2018-07-26T07:58:22.134Z,62.08
2018-07-26T07:58:47.715Z,61.79
2018-07-26T07:59:13.222Z,62.08
2018-07-26T07:59:38.780Z,62.18
2018-07-26T08:00:04.234Z,61.69
2018-07-26T08:00:29.735Z,62.18
2018-07-26T08:00:55.217Z,61.99
2018-07-26T08:01:20.712Z,61.63
2018-07-26T08:01:46.245Z,61.63
2018-07-26T08:02:11.703Z,61.63
2018-07-26T08:02:37.275Z,61.04
2018-07-26T08:03:02.740Z,61.43
2018-07-26T08:03:28.248Z,60.58
2018-07-26T08:03:53.825Z,60.39
2018-07-26T08:04:19.330Z,59.8
2018-07-26T08:04:44.840Z,59.12
2018-07-26T08:05:10.348Z,59.22
2018-07-26T08:05:35.800Z,59.51
2018-07-26T08:06:01.326Z,58.44
2018-07-26T08:06:26.853Z,59.12
2018-07-26T08:06:52.416Z,59.22
2018-07-26T08:07:17.878Z,58.53
2018-07-26T08:07:43.380Z,58.53
2018-07-26T08:08:09.014Z,58.44
2018-07-26T08:08:34.480Z,58.14
2018-07-26T08:09:00.010Z,58.34
2018-07-26T08:09:25.578Z,58.73
2018-07-26T08:09:51.114Z,58.53
2018-07-26T08:10:16.902Z,58.92
2018-07-26T08:10:42.435Z,58.24
2018-07-26T08:11:08.026Z,58.44
2018-07-26T08:11:33.450Z,58.92
2018-07-26T08:11:58.964Z,59.34
2018-07-26T08:12:24.493Z,59.54
2018-07-26T08:12:49.977Z,59.15
2018-07-26T08:13:15.463Z,58.95
2018-07-26T08:13:41.000Z,59.15
2018-07-26T08:14:06.496Z,59.05
2018-07-26T08:14:32.060Z,58.95
2018-07-26T08:14:57.555Z,59.18
2018-07-26T08:15:23.068Z,58.59
2018-07-26T08:15:48.617Z,59.57
2018-07-26T08:16:14.155Z,58.4
2018-07-26T08:16:39.653Z,58.3
2018-07-26T08:17:05.170Z,57.81
2018-07-26T08:17:30.696Z,57.81
2018-07-26T08:17:56.171Z,57.42
2018-07-26T08:18:21.653Z,57.52
2018-07-26T08:18:47.154Z,57.32
2018-07-26T08:19:12.697Z,57.64
2018-07-26T08:19:38.226Z,57.15
2018-07-26T08:20:03.786Z,56.96
2018-07-26T08:20:29.318Z,56.57
2018-07-26T08:20:54.814Z,56.96
2018-07-26T08:21:20.387Z,57.06
2018-07-26T08:21:45.882Z,56.67
2018-07-26T08:22:11.377Z,56.76
2018-07-26T08:22:36.918Z,57.15
2018-07-26T08:23:02.456Z,56.67
2018-07-26T08:23:27.961Z,56.37
2018-07-26T08:23:53.501Z,56.5
2018-07-26T08:24:19.027Z,56.4
2018-07-26T08:24:44.579Z,55.79
2018-07-26T08:25:10.059Z,56.6
2018-07-26T08:26:23.866Z,56.5
2018-07-26T08:26:49.373Z,56.01
2018-07-26T08:27:14.861Z,56.4
2018-07-26T08:27:40.388Z,56.5
2018-07-26T08:28:05.865Z,55.81
2018-07-26T08:28:31.347Z,55.62
2018-07-26T08:28:56.848Z,55.81
2018-07-26T08:29:22.371Z,55.13
2018-07-26T08:29:47.862Z,54.96
2018-07-26T08:30:13.365Z,54.47
2018-07-26T08:31:16.986Z,52.78
2018-07-26T08:31:42.494Z,53.17
2018-07-26T08:32:08.031Z,53.37
2018-07-26T08:32:33.547Z,53.17
2018-07-26T08:32:59.092Z,53.17
2018-07-26T08:33:24.572Z,53.37
2018-07-26T08:33:50.105Z,53.86
2018-07-26T08:34:15.601Z,53.56
2018-07-26T08:34:41.162Z,53.56
2018-07-26T08:35:39.809Z,53.76
2018-07-26T08:36:05.333Z,53.66
2018-07-26T08:36:30.836Z,53.59
2018-07-26T08:36:56.332Z,53.59
2018-07-26T08:37:21.860Z,53.88
2018-07-26T08:37:47.350Z,53.49
2018-07-26T08:38:12.865Z,53.2
2018-07-26T08:38:38.349Z,52.83
2018-07-26T08:39:03.848Z,53
2018-07-26T08:40:12.582Z,52.44
2018-07-26T08:40:38.086Z,52.25
2018-07-26T08:41:03.667Z,52.44
2018-07-26T08:41:29.161Z,52.93
2018-07-26T08:41:54.754Z,53.33
2018-07-26T08:42:20.280Z,53.03
2018-07-26T08:42:45.771Z,53.03
2018-07-26T08:43:11.302Z,53.03
2018-07-26T08:43:36.846Z,52.64
2018-07-26T08:44:02.291Z,52.64
2018-07-26T08:44:27.762Z,52.34
2018-07-26T08:44:53.253Z,51.46
2018-07-26T08:45:18.737Z,50.49
2018-07-26T08:45:44.283Z,49.7
2018-07-26T08:46:09.768Z,49.11
2018-07-26T08:46:35.271Z,49.21
2018-07-26T08:47:00.803Z,49.02
2018-07-26T08:47:26.341Z,49.31
2018-07-26T08:47:51.823Z,49.11
2018-07-26T08:48:17.508Z,49.51
2018-07-26T08:48:43.029Z,49.41
2018-07-26T08:49:08.523Z,49.41
2018-07-26T08:49:34.029Z,49.11
2018-07-26T08:49:59.597Z,49.41
2018-07-26T08:50:25.093Z,49.31
2018-07-26T08:50:50.575Z,48.92
2018-07-26T08:51:16.102Z,48.75
2018-07-26T08:51:41.821Z,49.14
2018-07-26T08:52:07.450Z,48.94
2018-07-26T08:52:32.892Z,48.65
2018-07-26T08:52:58.471Z,49.14
2018-07-26T08:53:23.977Z,48.97
2018-07-26T08:53:49.501Z,48.97
2018-07-26T08:54:15.069Z,49.16
2018-07-26T08:54:40.552Z,49.16
2018-07-26T08:55:06.090Z,49.26
2018-07-26T08:55:31.595Z,49.46
2018-07-26T08:55:57.076Z,49.46
2018-07-26T08:56:22.631Z,49.77
2018-07-26T08:56:48.069Z,48.87
2018-07-26T08:57:13.555Z,48.9
2018-07-26T08:57:39.145Z,47.99
2018-07-26T08:58:04.805Z,47.91
2018-07-26T08:58:30.349Z,47.91
2018-07-26T08:58:55.841Z,47.81
2018-07-26T08:59:21.373Z,47.23
2018-07-26T08:59:46.967Z,46.84
2018-07-26T09:00:12.445Z,46.64
2018-07-26T09:01:21.354Z,46.84
2018-07-26T09:01:46.888Z,46.94
2018-07-26T09:02:12.516Z,46.15
2018-07-26T09:02:38.077Z,45.76
2018-07-26T09:03:03.547Z,45.95
2018-07-26T09:03:29.040Z,46.25
2018-07-26T09:03:54.548Z,46.34
2018-07-26T09:04:20.021Z,46.08
2018-07-26T09:04:45.539Z,44.51
2018-07-26T09:05:11.052Z,44.48
2018-07-26T09:05:36.525Z,44.8
2018-07-26T09:06:02.035Z,45.09
2018-07-26T09:06:27.717Z,44.31
2018-07-26T09:06:53.228Z,43.62
2018-07-26T09:07:18.787Z,44.12
2018-07-26T09:07:44.301Z,44.02
2018-07-26T09:08:09.737Z,43.72
2018-07-26T09:08:35.212Z,44.12
2018-07-26T09:09:00.704Z,42.84
2018-07-26T09:09:26.298Z,42.74
2018-07-26T09:09:51.857Z,44.12
2018-07-26T09:10:17.387Z,43.33
2018-07-26T09:10:42.833Z,41.66
2018-07-26T09:11:08.319Z,41.05
2018-07-26T09:11:33.879Z,42.13
2018-07-26T09:11:59.403Z,42.91
2018-07-26T09:12:24.947Z,41.74
2018-07-26T09:12:50.456Z,41.15
2018-07-26T09:13:16.197Z,41.35
2018-07-26T09:13:41.688Z,40.86
2018-07-26T09:14:07.334Z,40.76
2018-07-26T09:14:33.056Z,40.37
2018-07-26T09:14:58.999Z,40.66
2018-07-26T09:15:24.505Z,40.56
2018-07-26T09:15:50.296Z,40.17
2018-07-26T09:16:15.831Z,40.27
2018-07-26T09:16:41.506Z,39.39
2018-07-26T09:17:06.916Z,39.88
2018-07-26T09:17:32.491Z,39.49
2018-07-26T09:17:58.127Z,40
2018-07-26T09:18:23.619Z,39.11
2018-07-26T09:18:49.110Z,39.51
2018-07-26T09:19:14.611Z,39.31
2018-07-26T09:19:40.541Z,38.82
2018-07-26T09:20:05.986Z,38.53
2018-07-26T09:20:31.445Z,39.22
2018-07-26T09:20:57.004Z,39.51
2018-07-26T09:21:22.725Z,39.61
2018-07-26T09:21:48.306Z,38.92
2018-07-26T09:22:13.819Z,38.13
2018-07-26T09:22:39.345Z,38.53
2018-07-26T09:23:04.858Z,38.33
2018-07-26T09:23:30.497Z,38.13
2018-07-26T09:23:56.162Z,38.43
2018-07-26T09:24:21.752Z,38.62
2018-07-26T09:24:47.219Z,38.72
2018-07-26T09:25:12.753Z,38.92
2018-07-26T09:25:38.270Z,39.01
2018-07-26T09:26:03.775Z,39.41
2018-07-26T09:26:29.416Z,39.8
2018-07-26T09:26:54.915Z,39.22
2018-07-26T09:27:20.395Z,39.22
2018-07-26T09:27:45.891Z,38.92
2018-07-26T09:28:11.393Z,39.11
2018-07-26T09:28:36.934Z,39.31
2018-07-26T09:29:02.423Z,39.41
2018-07-26T09:29:27.853Z,39.22
2018-07-26T09:29:53.323Z,39.01
2018-07-26T09:30:18.840Z,38.62
2018-07-26T09:30:44.354Z,39.11
2018-07-26T09:31:09.874Z,38.92
2018-07-26T09:31:35.350Z,39.51
2018-07-26T09:32:01.057Z,39.61
2018-07-26T09:32:26.726Z,39.11
2018-07-26T09:32:52.360Z,38.92
2018-07-26T09:33:17.957Z,38.45
2018-07-26T09:33:43.452Z,37.54
2018-07-26T09:34:09.273Z,37.66
2018-07-26T09:34:34.771Z,37.17
2018-07-26T09:35:00.286Z,37.07
2018-07-26T09:35:25.856Z,37.15
2018-07-26T09:35:51.343Z,37.07
2018-07-26T09:36:16.913Z,36.78
2018-07-26T09:36:42.427Z,37.07
2018-07-26T09:37:07.998Z,36.49
2018-07-26T09:37:33.539Z,36.66
2018-07-26T09:37:59.059Z,36.68
2018-07-26T09:38:24.651Z,36.78
2018-07-26T09:38:50.130Z,36.68
2018-07-26T09:39:15.800Z,37.05
2018-07-26T09:39:41.201Z,36.88
2018-07-26T09:40:06.696Z,37.07
2018-07-26T09:40:32.198Z,37.07
2018-07-26T09:40:57.693Z,36.78
2018-07-26T09:41:23.227Z,36.78
2018-07-26T09:42:26.843Z,36.21
2018-07-26T09:42:52.417Z,36.11
2018-07-26T09:43:18.205Z,35.82
2018-07-26T09:43:43.724Z,35.41
2018-07-26T09:44:09.309Z,35.6
2018-07-26T09:44:35.202Z,35.99
2018-07-26T09:45:00.776Z,35.89
2018-07-26T09:45:26.315Z,35.5
2018-07-26T09:45:51.820Z,36.29
2018-07-26T09:46:17.330Z,35.97
2018-07-26T09:46:43.137Z,35.97
2018-07-26T09:47:08.426Z,35.8
2018-07-26T09:47:33.944Z,36.39
2018-07-26T09:47:59.483Z,35.88
2018-07-26T09:48:24.961Z,36.18
2018-07-26T09:48:50.451Z,35.68
2018-07-26T09:49:15.938Z,35.78
2018-07-26T09:49:41.495Z,36.08
2018-07-26T09:50:07.209Z,36.57
2018-07-26T09:50:32.717Z,36.66
2018-07-26T09:50:58.235Z,36.57
2018-07-26T09:51:23.732Z,36.47
2018-07-26T09:51:49.224Z,36.47